Time;durP1;ratioP1;P1;durP2;ratioP2;P2;SDS_P1;SDS_P2;PMS_P1;PMS_P2;Temp;Humidity;BMP_temperature;BMP_pressure;BME280_temperature;BME280_humidity;BME280_pressure;Samples;Min_cycle;Max_cycle;Signal;HPM_P1;HPM_P2
2020/12/04 00:01:05;;;;;;;77.68;25.15;;;;;;;-0.88;100.00;97464.59;5070256;28;20016;-79
2020/12/04 00:03:31;;;;;;;59.85;21.27;;;;;;;-0.95;100.00;97470.88;5071039;28;20024;-79
2020/12/04 00:05:57;;;;;;;70.75;22.52;;;;;;;-1.02;100.00;97464.88;5062390;28;20059;-80
2020/12/04 00:08:22;;;;;;;80.63;23.85;;;;;;;-0.97;100.00;97484.00;5078551;28;20024;-79
2020/12/04 00:10:48;;;;;;;65.13;20.90;;;;;;;-0.92;100.00;97482.16;5086956;28;20016;-79
2020/12/04 00:13:14;;;;;;;71.57;21.50;;;;;;;-0.91;100.00;97494.41;5071321;28;20068;-78
2020/12/04 00:15:39;;;;;;;74.03;24.63;;;;;;;-1.01;100.00;97470.97;5076217;28;20050;-80
2020/12/04 00:18:05;;;;;;;77.65;24.52;;;;;;;-0.88;100.00;97481.22;5065066;28;20033;-79
2020/12/04 00:20:30;;;;;;;87.82;30.70;;;;;;;-0.86;100.00;97497.81;5074521;28;20081;-79
2020/12/04 00:22:56;;;;;;;78.95;23.95;;;;;;;-0.86;100.00;97500.44;5090857;28;20047;-79
2020/12/04 00:25:22;;;;;;;72.05;24.05;;;;;;;-0.82;100.00;97494.22;5090839;28;20125;-79
2020/12/04 00:27:47;;;;;;;70.10;23.13;;;;;;;-0.81;100.00;97490.72;5059361;28;20023;-80
2020/12/04 00:30:13;;;;;;;90.85;25.95;;;;;;;-0.84;100.00;97489.91;5062092;28;20048;-81
2020/12/04 00:32:39;;;;;;;87.55;22.60;;;;;;;-0.82;100.00;97488.13;5067811;28;20036;-81
2020/12/04 00:35:04;;;;;;;83.60;25.88;;;;;;;-0.83;100.00;97491.66;5065725;28;20086;-81
2020/12/04 00:37:30;;;;;;;87.25;25.88;;;;;;;-0.85;100.00;97502.16;5062108;28;20392;-81
2020/12/04 00:39:56;;;;;;;87.43;26.63;;;;;;;-1.01;100.00;97487.56;5054145;28;20051;-81
2020/12/04 00:42:21;;;;;;;86.93;25.38;;;;;;;-0.95;100.00;97489.25;5064201;28;20039;-80
2020/12/04 00:44:47;;;;;;;91.35;26.58;;;;;;;-0.93;100.00;97493.56;5076218;28;20028;-80
2020/12/04 00:47:12;;;;;;;92.50;26.98;;;;;;;-1.00;100.00;97502.44;5070036;28;20024;-80
2020/12/04 00:49:39;;;;;;;97.82;26.02;;;;;;;-0.92;100.00;97502.31;5074980;28;20028;-80
2020/12/04 00:52:04;;;;;;;93.13;24.88;;;;;;;-0.91;100.00;97489.16;5073053;28;20036;-80
2020/12/04 00:54:30;;;;;;;96.18;27.63;;;;;;;-0.93;100.00;97484.84;5056882;28;20461;-80
2020/12/04 00:56:56;;;;;;;93.88;23.83;;;;;;;-0.93;100.00;97482.22;5074738;28;20486;-80
2020/12/04 00:59:21;;;;;;;94.53;25.15;;;;;;;-0.92;100.00;97476.91;5091045;28;20042;-82
2020/12/04 01:01:47;;;;;;;125.82;25.08;;;;;;;-0.86;100.00;97476.81;5074694;28;20028;-81
2020/12/04 01:04:13;;;;;;;82.18;24.10;;;;;;;-0.82;100.00;97481.09;5066059;28;20040;-81
2020/12/04 01:06:38;;;;;;;90.90;22.23;;;;;;;-0.85;100.00;97472.41;5071609;28;20028;-81
2020/12/04 01:09:05;;;;;;;83.65;24.95;;;;;;;-0.81;100.00;97480.22;5073768;28;20033;-79
2020/12/04 01:11:31;;;;;;;105.63;23.15;;;;;;;-0.84;100.00;97464.53;5058338;28;20024;-81
2020/12/04 01:13:58;;;;;;;77.00;20.80;;;;;;;-0.85;100.00;97465.41;5058750;28;20035;-81
2020/12/04 01:16:23;;;;;;;81.85;23.42;;;;;;;-0.85;100.00;97462.78;5069322;28;20028;-81
2020/12/04 01:18:49;;;;;;;70.50;21.48;;;;;;;-0.82;100.00;97473.22;5079044;28;20030;-79
2020/12/04 01:21:15;;;;;;;75.72;22.52;;;;;;;-0.84;100.00;97474.16;5069014;28;20047;-79
2020/12/04 01:23:41;;;;;;;77.15;23.20;;;;;;;-0.78;100.00;97460.91;5095366;28;20110;-80
2020/12/04 01:26:09;;;;;;;82.63;24.25;;;;;;;-0.88;100.00;97452.34;5078705;28;20042;-80
2020/12/04 01:28:35;;;;;;;97.10;24.50;;;;;;;-0.91;100.00;97446.28;5066099;28;20020;-79
2020/12/04 01:31:01;;;;;;;112.75;24.35;;;;;;;-1.02;100.00;97446.50;5056627;28;20051;-79
2020/12/04 01:33:26;;;;;;;95.32;24.85;;;;;;;-0.98;100.00;97450.78;5058481;28;20490;-80
2020/12/04 01:35:52;;;;;;;107.80;25.73;;;;;;;-1.05;100.00;97445.69;5089114;28;20042;-80
2020/12/04 01:38:18;;;;;;;80.38;22.38;;;;;;;-0.95;100.00;97445.47;5071270;28;20136;-80
2020/12/04 01:40:44;;;;;;;82.63;23.52;;;;;;;-0.87;100.00;97442.72;5079196;28;20105;-80
2020/12/04 01:43:09;;;;;;;73.22;23.23;;;;;;;-0.85;100.00;97426.03;5078446;28;20028;-79
2020/12/04 01:45:36;;;;;;;82.72;24.13;;;;;;;-0.87;100.00;97422.59;5077378;28;20032;-79
2020/12/04 01:48:03;;;;;;;113.00;24.98;;;;;;;-1.01;100.00;97436.84;5080757;28;20028;-79
2020/12/04 01:50:29;;;;;;;108.82;25.35;;;;;;;-1.04;100.00;97422.03;5066652;28;20025;-81
2020/12/04 01:52:55;;;;;;;104.40;25.65;;;;;;;-1.15;100.00;97414.38;5074805;28;20415;-81
2020/12/04 01:55:20;;;;;;;88.72;24.52;;;;;;;-1.06;100.00;97423.81;5091384;28;20052;-80
2020/12/04 01:57:47;;;;;;;93.28;26.00;;;;;;;-1.10;100.00;97414.25;5076779;28;20502;-79
2020/12/04 02:00:13;;;;;;;92.95;26.80;;;;;;;-1.18;100.00;97413.56;5068492;28;20480;-79
2020/12/04 02:02:42;;;;;;;99.47;26.25;;;;;;;-1.28;100.00;97409.34;5057024;28;20381;-79
2020/12/04 02:05:08;;;;;;;93.80;26.48;;;;;;;-1.36;100.00;97404.25;5057302;28;20114;-79
2020/12/04 02:07:47;;;;;;;97.25;27.95;;;;;;;-1.41;100.00;97410.44;5058179;28;20098;-80
2020/12/04 02:10:20;;;;;;;90.22;27.67;;;;;;;-1.45;100.00;97408.81;5059138;28;20039;-80
2020/12/04 02:12:48;;;;;;;115.25;27.42;;;;;;;-1.54;100.00;97412.44;5084261;28;20029;-80
2020/12/04 02:15:13;;;;;;;121.65;28.55;;;;;;;-1.53;100.00;97410.66;5066525;28;20032;-80
2020/12/04 02:17:40;;;;;;;108.45;27.25;;;;;;;-1.52;100.00;97405.41;5067681;28;20047;-80
2020/12/04 02:20:07;;;;;;;110.25;25.48;;;;;;;-1.38;100.00;97407.78;5083799;28;20201;-80
2020/12/04 02:22:37;;;;;;;103.30;27.48;;;;;;;-1.44;100.00;97402.63;5067665;28;20036;-80
2020/12/04 02:25:07;;;;;;;139.10;23.58;;;;;;;-1.33;100.00;97409.44;5075361;28;20543;-80
2020/12/04 02:27:33;;;;;;;83.70;23.60;;;;;;;-1.18;100.00;97408.31;5079796;28;20090;-80
2020/12/04 02:29:59;;;;;;;138.30;23.25;;;;;;;-1.14;100.00;97405.59;5085507;28;20401;-80
2020/12/04 02:32:24;;;;;;;74.20;21.85;;;;;;;-1.09;100.00;97402.88;5060076;28;20036;-80
2020/12/04 02:34:50;;;;;;;88.55;21.42;;;;;;;-1.10;100.00;97395.91;5090759;28;20020;-79
2020/12/04 02:37:16;;;;;;;87.13;21.17;;;;;;;-1.06;100.00;97415.94;5079600;28;20125;-80
2020/12/04 02:39:41;;;;;;;99.93;22.65;;;;;;;-1.02;100.00;97401.88;5069726;28;20097;-80
2020/12/04 02:42:07;;;;;;;102.43;23.50;;;;;;;-1.19;100.00;97390.81;5073197;28;20096;-79
2020/12/04 02:44:33;;;;;;;95.95;22.50;;;;;;;-1.16;100.00;97394.25;5094055;28;20494;-80
2020/12/04 02:46:59;;;;;;;90.30;24.33;;;;;;;-1.22;100.00;97383.00;5080625;28;20535;-81
2020/12/04 02:49:37;;;;;;;194.55;23.77;;;;;;;-1.19;100.00;97391.69;5072581;28;20070;-79
2020/12/04 02:52:02;;;;;;;76.13;21.60;;;;;;;-1.15;100.00;97387.25;5080298;28;20218;-79
2020/12/04 02:54:28;;;;;;;85.07;22.48;;;;;;;-1.13;100.00;97380.22;5063560;28;20056;-79
2020/12/04 02:56:54;;;;;;;119.45;23.60;;;;;;;-1.18;100.00;97363.72;5071215;28;20024;-80
2020/12/04 02:59:19;;;;;;;162.18;23.15;;;;;;;-1.29;100.00;97357.81;5080504;28;20032;-79
2020/12/04 03:01:45;;;;;;;148.60;22.88;;;;;;;-1.18;100.00;97364.56;5080540;28;20263;-79
2020/12/04 03:04:10;;;;;;;120.53;23.90;;;;;;;-1.14;100.00;97379.34;5074185;28;20370;-80
2020/12/04 03:06:36;;;;;;;164.60;23.52;;;;;;;-1.22;100.00;97369.91;5079768;28;20036;-80
2020/12/04 03:09:02;;;;;;;89.35;19.95;;;;;;;-1.08;100.00;97371.34;5078518;28;20038;-79
2020/12/04 03:11:28;;;;;;;84.10;21.15;;;;;;;-1.17;100.00;97365.44;5081996;28;20379;-80
2020/12/04 03:13:54;;;;;;;164.80;22.38;;;;;;;-1.10;100.00;97369.66;5076865;28;20100;-77
2020/12/04 03:16:19;;;;;;;94.72;21.13;;;;;;;-1.20;100.00;97365.50;5059319;28;20521;-83
2020/12/04 03:18:45;;;;;;;179.18;22.23;;;;;;;-1.15;100.00;97356.66;5074276;28;20043;-77
2020/12/04 03:21:11;;;;;;;137.98;24.00;;;;;;;-1.06;100.00;97363.47;5074638;28;20020;-77
2020/12/04 03:23:37;;;;;;;242.82;23.88;;;;;;;-1.20;100.00;97370.75;5065367;28;20056;-77
2020/12/04 03:26:02;;;;;;;79.25;23.73;;;;;;;-1.26;100.00;97363.84;5072234;28;20050;-77
2020/12/04 03:28:28;;;;;;;127.80;22.08;;;;;;;-1.21;100.00;97369.88;5070731;28;20029;-77
2020/12/04 03:30:53;;;;;;;71.30;19.90;;;;;;;-1.20;100.00;97383.88;5081828;28;20048;-78
2020/12/04 03:33:20;;;;;;;138.75;23.00;;;;;;;-1.13;100.00;97382.84;5058829;28;20438;-78
2020/12/04 03:35:45;;;;;;;119.65;21.55;;;;;;;-1.21;100.00;97366.38;5070481;28;20400;-79
2020/12/04 03:38:11;;;;;;;79.15;19.52;;;;;;;-1.26;100.00;97370.88;5070461;28;20033;-79
2020/12/04 03:40:37;;;;;;;82.85;22.00;;;;;;;-1.18;100.00;97384.69;5079567;28;20028;-78
2020/12/04 03:43:02;;;;;;;126.68;19.83;;;;;;;-1.23;100.00;97365.56;5090874;28;20016;-78
2020/12/04 03:45:28;;;;;;;94.35;18.85;;;;;;;-1.28;100.00;97356.91;5090695;28;20035;-78
2020/12/04 03:47:53;;;;;;;126.15;19.45;;;;;;;-1.36;100.00;97354.44;5070727;28;20032;-78
2020/12/04 03:50:19;;;;;;;86.30;20.00;;;;;;;-1.45;100.00;97364.22;5054167;28;20052;-78
2020/12/04 03:52:45;;;;;;;76.75;18.17;;;;;;;-1.40;100.00;97362.38;5088592;28;20494;-79
2020/12/04 03:55:10;;;;;;;66.85;19.92;;;;;;;-1.42;100.00;97362.41;5073683;28;20030;-78
2020/12/04 03:57:36;;;;;;;114.05;20.48;;;;;;;-1.48;100.00;97365.16;5081969;28;20103;-78
2020/12/04 04:00:04;;;;;;;156.05;20.55;;;;;;;-1.66;100.00;97360.19;5091774;28;20030;-79
2020/12/04 04:02:30;;;;;;;76.38;19.98;;;;;;;-1.65;100.00;97362.81;5083099;28;20020;-78
2020/12/04 04:04:56;;;;;;;71.60;19.48;;;;;;;-1.50;100.00;97374.78;5069930;28;20036;-79
2020/12/04 04:07:21;;;;;;;80.38;17.77;;;;;;;-1.46;100.00;97371.22;5076195;28;20085;-79
2020/12/04 04:09:47;;;;;;;76.18;20.55;;;;;;;-1.54;100.00;97364.38;5090348;28;20067;-77
2020/12/04 04:12:12;;;;;;;91.93;21.38;;;;;;;-1.56;100.00;97366.16;5090350;28;20036;-77
2020/12/04 04:14:38;;;;;;;100.13;22.83;;;;;;;-1.46;100.00;97367.72;5073049;28;20024;-77
2020/12/04 04:17:03;;;;;;;228.20;23.52;;;;;;;-1.62;100.00;97361.88;5078608;28;20059;-77
2020/12/04 04:19:29;;;;;;;90.10;20.95;;;;;;;-1.58;100.00;97360.94;5060704;28;20031;-77
2020/12/04 04:21:55;;;;;;;87.38;20.80;;;;;;;-1.46;100.00;97375.59;5090260;28;20040;-79
2020/12/04 04:24:21;;;;;;;107.93;21.23;;;;;;;-1.40;100.00;97375.47;5082154;28;20438;-79
2020/12/04 04:26:50;;;;;;;104.07;21.80;;;;;;;-1.27;100.00;97387.50;5072473;28;20020;-76
2020/12/04 04:29:16;;;;;;;131.98;22.15;;;;;;;-1.36;100.00;97379.78;5058644;28;20036;-78
2020/12/04 04:31:42;;;;;;;89.63;20.88;;;;;;;-1.24;100.00;97382.19;5091191;28;20108;-77
2020/12/04 04:34:07;;;;;;;99.05;23.10;;;;;;;-1.33;100.00;97379.72;5078501;28;20028;-78
2020/12/04 04:36:33;;;;;;;125.47;22.95;;;;;;;-1.24;100.00;97392.69;5053230;28;20093;-77
2020/12/04 04:38:58;;;;;;;181.07;25.38;;;;;;;-1.23;100.00;97376.06;5052889;28;20028;-77
2020/12/04 04:41:24;;;;;;;245.13;26.33;;;;;;;-1.32;100.00;97368.31;5070172;28;20430;-78
2020/12/04 04:43:50;;;;;;;129.60;24.85;;;;;;;-1.34;100.00;97378.00;5056818;28;20036;-77
2020/12/04 04:46:43;;;;;;;197.32;25.60;;;;;;;-1.35;100.00;97376.25;5070900;28;20089;-77
2020/12/04 04:49:13;;;;;;;113.35;25.02;;;;;;;-1.48;100.00;97369.50;5073475;28;20437;-78
2020/12/04 04:51:41;;;;;;;129.73;33.13;;;;;;;-1.47;100.00;97366.84;5057236;28;20032;-78
2020/12/04 04:54:08;;;;;;;142.63;26.63;;;;;;;-1.48;100.00;97370.38;5082031;28;20032;-78
2020/12/04 04:56:34;;;;;;;188.05;24.25;;;;;;;-1.57;100.00;97369.69;5064064;28;20028;-78
2020/12/04 04:58:59;;;;;;;119.65;21.85;;;;;;;-1.43;100.00;97367.66;5074885;28;20081;-78
2020/12/04 05:01:25;;;;;;;275.88;24.92;;;;;;;-1.42;100.00;97370.28;5057325;28;20475;-78
2020/12/04 05:04:00;;;;;;;143.25;20.50;;;;;;;-1.40;100.00;97363.22;5073600;28;20032;-79
2020/12/04 05:06:36;;;;;;;83.80;19.00;;;;;;;-1.32;100.00;97384.94;5056840;28;20120;-79
2020/12/04 05:09:07;;;;;;;251.35;20.92;;;;;;;-1.40;100.00;97372.84;5084107;28;20028;-78
2020/12/04 05:11:33;;;;;;;228.73;31.77;;;;;;;-1.39;100.00;97379.84;5079404;28;20028;-78
2020/12/04 05:14:14;;;;;;;148.15;22.02;;;;;;;-1.41;100.00;97371.13;5074815;28;20020;-77
2020/12/04 05:16:44;;;;;;;113.43;20.20;;;;;;;-1.55;100.00;97371.38;5056801;28;20032;-77
2020/12/04 05:19:10;;;;;;;76.40;19.08;;;;;;;-1.47;100.00;97382.59;5077965;28;20023;-79
2020/12/04 05:21:36;;;;;;;157.57;22.20;;;;;;;-1.58;100.00;97384.53;5076981;28;20032;-79
2020/12/04 05:24:01;;;;;;;108.97;23.67;;;;;;;-1.57;100.00;97388.03;5076164;28;20097;-77
2020/12/04 05:30:01;;;;;;;121.97;21.33;;;;;;;-1.40;100.00;97391.22;4990936;28;20092;-78
2020/12/04 05:32:29;;;;;;;73.35;21.38;;;;;;;-1.48;100.00;97373.00;5070781;28;20071;-79
2020/12/04 05:35:09;;;;;;;105.95;19.65;;;;;;;-1.43;100.00;97389.50;5093838;28;20468;-79
2020/12/04 05:37:34;;;;;;;104.30;22.05;;;;;;;-1.43;100.00;97384.28;5077464;28;20035;-78
2020/12/04 05:40:00;;;;;;;162.13;26.60;;;;;;;-1.53;100.00;97387.94;5066694;28;20025;-78
2020/12/04 05:42:29;;;;;;;166.05;27.55;;;;;;;-1.61;100.00;97383.72;5078496;28;20376;-79
2020/12/04 05:44:55;;;;;;;144.07;27.33;;;;;;;-1.75;100.00;97376.94;5095221;28;20034;-81
2020/12/04 05:47:22;;;;;;;98.32;24.60;;;;;;;-1.62;100.00;97398.59;5073091;28;20024;-80
2020/12/04 05:49:47;;;;;;;104.93;25.60;;;;;;;-1.52;100.00;97383.56;5055891;28;20029;-78
2020/12/04 05:52:14;;;;;;;94.35;24.15;;;;;;;-1.40;100.00;97389.47;5062458;28;20029;-78
2020/12/04 05:54:44;;;;;;;98.75;27.75;;;;;;;-1.44;100.00;97386.91;5067940;28;20019;-78
2020/12/04 05:57:10;;;;;;;94.47;28.42;;;;;;;-1.44;100.00;97392.16;5092243;28;20123;-78
2020/12/04 05:59:36;;;;;;;92.88;23.45;;;;;;;-1.45;100.00;97387.81;5059753;28;20042;-78
2020/12/04 06:02:02;;;;;;;81.72;21.80;;;;;;;-1.53;100.00;97393.19;5066380;28;20422;-77
2020/12/04 06:04:28;;;;;;;91.53;24.58;;;;;;;-1.55;100.00;97391.47;5067925;28;20032;-79
2020/12/04 06:06:54;;;;;;;100.95;24.35;;;;;;;-1.49;100.00;97391.38;5074876;28;20034;-79
2020/12/04 06:09:23;;;;;;;120.07;26.92;;;;;;;-1.43;100.00;97393.88;5074116;28;20471;-79
2020/12/04 06:11:49;;;;;;;128.27;26.17;;;;;;;-1.52;100.00;97394.06;5090818;28;20050;-77
2020/12/04 06:14:15;;;;;;;177.50;28.63;;;;;;;-1.34;100.00;97398.97;5088790;28;20107;-77
2020/12/04 06:16:42;;;;;;;139.80;26.08;;;;;;;-1.49;100.00;97394.88;5076061;28;20028;-78
2020/12/04 06:19:27;;;;;;;190.23;28.13;;;;;;;-1.45;100.00;97374.72;5077192;28;20043;-78
2020/12/04 06:22:05;;;;;;;207.40;26.73;;;;;;;-1.49;100.00;97394.88;5075587;28;20031;-78
2020/12/04 06:24:32;;;;;;;132.63;37.42;;;;;;;-1.20;100.00;97394.38;5090434;28;20479;-78
2020/12/04 06:26:58;;;;;;;192.43;28.83;;;;;;;-1.10;100.00;97399.41;5065555;28;20483;-80
2020/12/04 06:29:23;;;;;;;93.32;29.27;;;;;;;-0.98;100.00;97393.03;5064727;28;20068;-77
2020/12/04 06:31:49;;;;;;;98.00;25.25;;;;;;;-0.97;99.63;97393.91;5069876;28;20040;-77
2020/12/04 06:34:19;;;;;;;140.10;25.83;;;;;;;-1.00;99.51;97405.34;5080609;28;20527;-78
2020/12/04 06:36:46;;;;;;;197.10;57.13;;;;;;;-0.86;99.20;97402.47;5090614;28;20028;-78
2020/12/04 06:39:31;;;;;;;88.55;33.80;;;;;;;-0.84;99.64;97416.41;5081196;28;20051;-78
2020/12/04 06:41:58;;;;;;;62.13;20.00;;;;;;;-1.04;99.59;97419.41;5090298;28;20463;-84
2020/12/04 06:44:25;;;;;;;62.35;22.35;;;;;;;-1.08;100.00;97415.13;5070661;28;20093;-78
2020/12/04 06:46:58;;;;;;;88.93;24.55;;;;;;;-0.96;99.01;97407.03;5070249;28;20433;-78
2020/12/04 06:51:58;;;;;;;73.63;24.92;;;;;;;-1.17;100.00;97395.16;5085997;28;20356;-77
2020/12/04 06:54:25;;;;;;;129.40;26.55;;;;;;;-1.17;100.00;97412.66;5062649;28;20459;-77
2020/12/04 06:56:50;;;;;;;122.68;25.38;;;;;;;-1.14;100.00;97387.22;5067580;28;20036;-82
2020/12/04 06:59:37;;;;;;;143.82;27.05;;;;;;;-1.15;100.00;97389.88;5085249;28;20035;-80
2020/12/04 07:02:10;;;;;;;131.73;21.85;;;;;;;-1.06;100.00;97409.84;5085584;28;20055;-80
2020/12/04 07:04:41;;;;;;;92.18;26.58;;;;;;;-0.99;99.85;97396.56;5073546;28;20028;-81
2020/12/04 07:07:12;;;;;;;121.05;32.33;;;;;;;-0.93;99.23;97408.72;5064442;28;20472;-82
2020/12/04 07:09:39;;;;;;;45.50;15.15;;;;;;;-0.82;97.63;97404.09;5066568;28;20107;-82
2020/12/04 07:12:05;;;;;;;59.38;20.67;;;;;;;-0.81;97.10;97400.59;5073589;28;20516;-80
2020/12/04 07:14:31;;;;;;;75.15;21.00;;;;;;;-0.70;97.15;97409.97;5089567;28;20027;-77
2020/12/04 07:16:57;;;;;;;59.63;18.83;;;;;;;-0.50;96.81;97411.34;5083032;28;20028;-78
2020/12/04 07:19:23;;;;;;;70.22;20.60;;;;;;;-0.62;97.41;97418.59;5061971;28;20025;-79
2020/12/04 07:21:50;;;;;;;140.27;27.15;;;;;;;-0.50;96.70;97416.59;5084187;28;20107;-78
2020/12/04 07:24:16;;;;;;;81.00;24.50;;;;;;;-0.38;96.33;97408.47;5074875;28;20032;-80
2020/12/04 07:27:00;;;;;;;63.15;22.70;;;;;;;-0.06;94.74;97398.09;5073288;28;20101;-78
2020/12/04 07:29:26;;;;;;;63.25;23.02;;;;;;;-0.12;94.65;97408.75;5089153;28;20063;-78
2020/12/04 07:31:53;;;;;;;96.57;31.08;;;;;;;-0.20;95.75;97413.31;5083151;28;20495;-78
2020/12/04 07:34:24;;;;;;;89.63;30.00;;;;;;;-0.10;94.97;97407.84;5063403;28;20074;-79
2020/12/04 07:36:55;;;;;;;94.55;29.33;;;;;;;-0.20;95.43;97418.56;5065545;28;20032;-79
2020/12/04 07:39:27;;;;;;;185.73;44.95;;;;;;;-0.18;95.42;97396.63;5072324;28;20431;-76
2020/12/04 07:41:55;;;;;;;154.30;47.45;;;;;;;0.15;94.44;97418.66;5074561;28;20027;-79
2020/12/04 07:44:27;;;;;;;127.85;42.88;;;;;;;0.22;93.78;97412.34;5066472;28;20482;-79
2020/12/04 07:47:03;;;;;;;146.27;45.25;;;;;;;0.29;93.24;97421.81;5069756;28;20024;-79
2020/12/04 07:49:31;;;;;;;117.25;38.45;;;;;;;0.21;93.06;97405.38;5090006;28;20046;-77
2020/12/04 07:52:15;;;;;;;137.13;37.60;;;;;;;0.11;94.37;97427.50;5061039;28;20390;-78
2020/12/04 07:54:41;;;;;;;124.72;38.85;;;;;;;0.09;94.17;97413.53;5052310;28;20055;-80
2020/12/04 07:57:07;;;;;;;124.85;42.03;;;;;;;0.14;93.88;97422.19;5072570;28;20027;-78
2020/12/04 07:59:34;;;;;;;122.35;42.83;;;;;;;0.19;93.71;97415.03;5064355;28;20043;-79
2020/12/04 08:02:02;;;;;;;95.18;32.55;;;;;;;0.31;94.30;97414.75;5070131;28;20123;-78
2020/12/04 08:04:29;;;;;;;86.43;31.48;;;;;;;0.52;92.87;97408.13;5054195;28;20040;-80
2020/12/04 08:07:06;;;;;;;94.65;31.67;;;;;;;0.63;90.96;97410.47;5051768;28;20100;-79
2020/12/04 08:09:33;;;;;;;106.57;37.05;;;;;;;0.53;90.87;97410.69;5082871;28;20031;-79
2020/12/04 08:11:59;;;;;;;107.93;39.67;;;;;;;0.53;90.29;97405.44;5059254;28;20491;-79
2020/12/04 08:14:27;;;;;;;145.05;47.55;;;;;;;0.62;90.40;97409.59;5088408;28;20036;-78
2020/12/04 08:16:57;;;;;;;135.35;46.83;;;;;;;0.43;91.67;97419.72;5079367;28;20025;-80
2020/12/04 08:19:30;;;;;;;129.18;43.05;;;;;;;0.53;92.43;97408.06;5080250;28;20150;-79
2020/12/04 08:21:57;;;;;;;141.25;49.42;;;;;;;0.52;93.65;97410.75;5079451;28;20032;-79
2020/12/04 08:24:24;;;;;;;150.82;50.83;;;;;;;0.62;93.33;97428.00;5067201;28;20248;-79
2020/12/04 08:27:10;;;;;;;133.75;47.50;;;;;;;0.59;91.84;97411.44;5053980;28;20059;-80
2020/12/04 08:29:38;;;;;;;118.90;43.45;;;;;;;0.66;90.78;97406.00;5060256;28;20059;-80
2020/12/04 08:32:18;;;;;;;147.52;49.38;;;;;;;0.58;91.05;97396.56;5074042;28;20495;-79
2020/12/04 08:34:43;;;;;;;148.68;49.15;;;;;;;0.75;91.62;97399.63;5067853;28;20047;-79
2020/12/04 08:37:12;;;;;;;165.45;51.53;;;;;;;1.08;89.17;97396.09;5067399;28;20108;-78
2020/12/04 08:39:47;;;;;;;153.32;51.03;;;;;;;1.05;87.66;97404.09;5074296;28;20052;-80
2020/12/04 08:42:23;;;;;;;149.95;55.67;;;;;;;1.07;88.67;97389.13;5070372;28;20039;-77
2020/12/04 08:45:09;;;;;;;150.70;48.40;;;;;;;1.16;88.20;97393.28;5073750;28;20032;-80
2020/12/04 08:47:45;;;;;;;149.70;52.28;;;;;;;1.23;87.75;97394.84;5076794;28;20039;-80
2020/12/04 08:50:16;;;;;;;149.98;54.63;;;;;;;1.12;89.67;97394.25;5062069;28;20024;-79
2020/12/04 08:52:44;;;;;;;190.75;59.85;;;;;;;1.27;89.24;97389.44;5066859;28;20161;-82
2020/12/04 08:55:21;;;;;;;164.73;55.90;;;;;;;1.10;90.17;97389.03;5051035;28;20127;-81
2020/12/04 08:57:49;;;;;;;178.32;57.28;;;;;;;0.88;89.87;97390.50;5050717;28;20594;-79
2020/12/04 09:00:17;;;;;;;194.75;64.65;;;;;;;1.02;90.06;97380.47;5080053;28;20041;-79
2020/12/04 09:02:43;;;;;;;174.93;63.10;;;;;;;1.32;88.49;97379.66;5050669;28;20035;-78
2020/12/04 09:05:11;;;;;;;134.65;46.80;;;;;;;1.07;89.51;97381.22;5066564;28;20031;-79
2020/12/04 09:07:37;;;;;;;138.73;49.50;;;;;;;1.05;90.43;97383.88;5065822;28;20070;-79
2020/12/04 09:10:04;;;;;;;103.75;37.17;;;;;;;1.37;88.30;97379.50;5068939;28;20467;-79
2020/12/04 09:12:31;;;;;;;80.85;31.23;;;;;;;1.60;87.61;97377.03;5070225;28;20479;-78
2020/12/04 09:14:57;;;;;;;82.65;32.85;;;;;;;1.71;86.49;97364.44;5087331;28;20115;-79
2020/12/04 09:17:22;;;;;;;90.53;32.80;;;;;;;1.48;86.38;97375.63;5063534;28;20035;-79
2020/12/04 09:19:48;;;;;;;71.10;26.88;;;;;;;1.20;87.40;97344.88;5069908;28;20028;-79
2020/12/04 09:22:15;;;;;;;63.00;24.35;;;;;;;1.45;88.05;97356.41;5058195;28;20119;-79
2020/12/04 09:24:42;;;;;;;66.07;26.55;;;;;;;1.69;87.14;97346.94;5050308;28;20024;-79
2020/12/04 09:27:07;;;;;;;66.55;25.70;;;;;;;1.79;86.46;97357.13;5049813;28;20038;-78
2020/12/04 09:29:34;;;;;;;62.53;24.75;;;;;;;2.03;85.34;97358.19;5051020;28;20052;-79
2020/12/04 09:32:14;;;;;;;58.92;23.10;;;;;;;1.97;84.03;97355.72;5054109;28;20039;-79
2020/12/04 09:34:42;;;;;;;76.60;28.23;;;;;;;1.64;84.31;97342.66;5053715;28;20093;-79
2020/12/04 09:37:23;;;;;;;97.35;35.78;;;;;;;1.50;87.63;97333.44;5070467;28;20111;-77
2020/12/04 09:39:54;;;;;;;98.88;31.75;;;;;;;1.60;86.97;97343.66;5070824;28;20032;-78
2020/12/04 09:42:21;;;;;;;86.15;30.90;;;;;;;1.13;87.79;97336.28;5071499;28;20504;-78
2020/12/04 09:44:47;;;;;;;98.80;37.95;;;;;;;1.26;90.39;97334.16;5070140;28;20142;-77
2020/12/04 09:47:14;;;;;;;114.70;40.17;;;;;;;1.40;89.15;97348.66;5070297;28;20032;-78
2020/12/04 09:49:40;;;;;;;103.95;39.53;;;;;;;1.56;88.06;97336.75;5067686;28;20484;-78
2020/12/04 09:52:06;;;;;;;205.75;74.90;;;;;;;1.60;88.49;97335.75;5055272;28;20120;-78
2020/12/04 09:54:37;;;;;;;122.00;46.97;;;;;;;1.82;87.64;97332.44;5055367;28;20038;-79
2020/12/04 09:57:07;;;;;;;545.35;201.00;;;;;;;1.66;89.94;97341.75;5039667;28;20480;-78
2020/12/04 09:59:33;;;;;;;130.95;47.50;;;;;;;1.87;87.93;97335.81;5056357;28;20032;-78
2020/12/04 10:01:59;;;;;;;125.00;46.00;;;;;;;1.80;87.10;97344.81;5072458;28;20089;-79
2020/12/04 10:04:26;;;;;;;80.88;30.70;;;;;;;1.64;87.68;97337.38;5056008;28;20416;-80
2020/12/04 10:06:52;;;;;;;108.60;42.00;;;;;;;1.46;88.67;97322.13;5055467;28;20421;-79
2020/12/04 10:09:19;;;;;;;100.93;37.63;;;;;;;1.81;87.03;97330.75;5056289;28;20491;-79
2020/12/04 10:11:44;;;;;;;108.53;42.38;;;;;;;2.06;86.31;97329.91;5055369;28;20032;-80
2020/12/04 10:14:10;;;;;;;83.97;30.52;;;;;;;2.11;85.00;97324.50;5072468;28;20392;-79
2020/12/04 10:16:36;;;;;;;65.18;26.38;;;;;;;1.95;85.44;97325.88;5072323;28;20036;-80
2020/12/04 10:19:02;;;;;;;82.28;30.92;;;;;;;1.78;87.42;97333.47;5055812;28;20028;-77
2020/12/04 10:21:36;;;;;;;82.15;30.42;;;;;;;1.85;87.27;97329.72;5055680;28;20032;-79
2020/12/04 10:24:02;;;;;;;92.18;36.35;;;;;;;2.03;86.88;97334.44;5055705;28;20051;-77
2020/12/04 10:26:28;;;;;;;105.95;41.55;;;;;;;1.89;87.46;97305.84;5072364;28;20019;-77
2020/12/04 10:28:54;;;;;;;113.72;41.72;;;;;;;1.98;87.76;97323.16;5071851;28;20024;-78
2020/12/04 10:31:20;;;;;;;122.13;44.75;;;;;;;1.96;86.93;97317.94;5072331;28;20044;-79
2020/12/04 10:33:45;;;;;;;169.25;59.13;;;;;;;1.99;87.09;97319.63;5071955;28;20043;-78
2020/12/04 10:36:13;;;;;;;124.30;44.60;;;;;;;2.00;87.03;97310.81;5056425;28;20028;-78
2020/12/04 10:38:39;;;;;;;92.88;35.05;;;;;;;1.87;87.96;97318.25;5056109;28;20036;-78
2020/12/04 10:41:04;;;;;;;147.35;52.83;;;;;;;1.84;87.09;97317.47;5055833;28;20028;-78
2020/12/04 10:43:30;;;;;;;97.20;38.22;;;;;;;2.11;85.26;97312.19;5072833;28;20094;-79
2020/12/04 10:45:56;;;;;;;79.38;29.13;;;;;;;1.99;84.25;97285.34;5055928;28;20043;-79
2020/12/04 10:48:21;;;;;;;103.97;38.70;;;;;;;2.03;85.96;97302.78;5055729;28;20025;-77
2020/12/04 10:50:48;;;;;;;91.40;36.80;;;;;;;1.82;86.77;97290.25;5055511;28;20093;-79
2020/12/04 10:53:15;;;;;;;113.82;43.05;;;;;;;2.04;87.37;97307.13;5056392;28;20089;-79
2020/12/04 10:55:44;;;;;;;130.80;48.90;;;;;;;1.95;86.52;97289.84;5055434;28;21027;-77
2020/12/04 10:58:12;;;;;;;103.75;41.42;;;;;;;2.06;86.87;97282.44;5071725;28;20056;-77
2020/12/04 11:00:38;;;;;;;120.00;47.25;;;;;;;1.63;89.80;97282.94;5071331;28;20038;-77
2020/12/04 11:03:42;;;;;;;166.30;61.10;;;;;;;1.73;89.47;97306.38;5056659;28;20119;-78
2020/12/04 11:05:56;;;;;;;198.90;69.13;;;;;;;1.83;89.62;97290.22;5069223;28;20048;-78
2020/12/04 11:08:22;;;;;;;199.10;75.82;;;;;;;2.04;88.67;97286.91;5055180;28;20121;-78
2020/12/04 11:10:47;;;;;;;211.05;71.32;;;;;;;1.78;89.99;97294.81;5055935;28;20035;-79
2020/12/04 11:13:13;;;;;;;156.90;58.15;;;;;;;1.89;90.15;97287.41;5071554;28;20040;-78
2020/12/04 11:15:39;;;;;;;143.07;51.47;;;;;;;1.68;90.41;97295.13;5071866;28;20115;-78
2020/12/04 11:18:04;;;;;;;158.77;55.35;;;;;;;1.37;92.12;97285.53;5055011;28;20029;-79
2020/12/04 11:20:30;;;;;;;139.15;50.10;;;;;;;1.55;92.59;97284.09;5053430;28;20508;-84